sensor_id;sensor_type;location;lat;lon;timestamp;temperature;humidity
32107;DHT22;18622;51.998;10.440;2023-04-19T02:47:43;5.90;93.20
32107;DHT22;18622;51.998;10.440;2023-04-19T02:50:13;5.80;93.40
32107;DHT22;18622;51.998;10.440;2023-04-19T02:52:41;5.70;93.60
32107;DHT22;18622;51.998;10.440;2023-04-19T02:55:09;5.60;94.30
32107;DHT22;18622;51.998;10.440;2023-04-19T02:57:37;5.50;94.60
32107;DHT22;18622;51.998;10.440;2023-04-19T03:02:35;5.50;95.20
32107;DHT22;18622;51.998;10.440;2023-04-19T03:05:03;5.50;95.20
32107;DHT22;18622;51.998;10.440;2023-04-19T03:07:32;5.60;95.30
32107;DHT22;18622;51.998;10.440;2023-04-19T03:09:59;5.60;95.30
32107;DHT22;18622;51.998;10.440;2023-04-19T03:12:27;5.60;95.30
32107;DHT22;18622;51.998;10.440;2023-04-19T03:14:55;5.60;95.50
32107;DHT22;18622;51.998;10.440;2023-04-19T03:17:23;5.60;95.70
32107;DHT22;18622;51.998;10.440;2023-04-19T03:19:50;5.70;95.70
32107;DHT22;18622;51.998;10.440;2023-04-19T03:22:18;5.70;95.60
32107;DHT22;18622;51.998;10.440;2023-04-19T03:24:46;5.70;95.70
32107;DHT22;18622;51.998;10.440;2023-04-19T03:27:14;5.70;95.80
32107;DHT22;18622;51.998;10.440;2023-04-19T03:29:42;5.80;95.80
32107;DHT22;18622;51.998;10.440;2023-04-19T03:32:10;5.90;96.00
32107;DHT22;18622;51.998;10.440;2023-04-19T03:34:37;5.90;95.90
32107;DHT22;18622;51.998;10.440;2023-04-19T03:37:05;6.00;95.80
32107;DHT22;18622;51.998;10.440;2023-04-19T03:39:33;6.00;95.80
32107;DHT22;18622;51.998;10.440;2023-04-19T03:42:01;6.00;95.70
32107;DHT22;18622;51.998;10.440;2023-04-19T03:44:31;6.00;95.70
32107;DHT22;18622;51.998;10.440;2023-04-19T03:46:59;6.10;95.90
32107;DHT22;18622;51.998;10.440;2023-04-19T03:49:27;6.10;95.80
32107;DHT22;18622;51.998;10.440;2023-04-19T03:51:54;6.00;95.70
32107;DHT22;18622;51.998;10.440;2023-04-19T03:54:22;6.00;95.60
32107;DHT22;18622;51.998;10.440;2023-04-19T03:56:50;6.00;95.60
32107;DHT22;18622;51.998;10.440;2023-04-19T03:59:18;5.90;96.00
32107;DHT22;18622;51.998;10.440;2023-04-19T04:01:46;5.80;95.90
32107;DHT22;18622;51.998;10.440;2023-04-19T04:04:13;5.80;95.90
32107;DHT22;18622;51.998;10.440;2023-04-19T04:06:41;5.70;95.90
32107;DHT22;18622;51.998;10.440;2023-04-19T04:09:09;5.60;96.20
32107;DHT22;18622;51.998;10.440;2023-04-19T04:11:37;5.50;96.30
32107;DHT22;18622;51.998;10.440;2023-04-19T04:14:05;5.50;96.30
32107;DHT22;18622;51.998;10.440;2023-04-19T04:16:33;5.40;96.40
32107;DHT22;18622;51.998;10.440;2023-04-19T04:19:01;5.30;96.60
32107;DHT22;18622;51.998;10.440;2023-04-19T04:21:28;5.20;96.90
32107;DHT22;18622;51.998;10.440;2023-04-19T04:23:56;5.20;97.10
32107;DHT22;18622;51.998;10.440;2023-04-19T04:26:26;5.10;97.30
32107;DHT22;18622;51.998;10.440;2023-04-19T04:28:56;5.10;97.50
32107;DHT22;18622;51.998;10.440;2023-04-19T04:31:24;5.00;97.50
32107;DHT22;18622;51.998;10.440;2023-04-19T04:33:51;5.00;97.60
32107;DHT22;18622;51.998;10.440;2023-04-19T04:36:20;5.00;97.90
32107;DHT22;18622;51.998;10.440;2023-04-19T04:38:48;5.00;97.80
32107;DHT22;18622;51.998;10.440;2023-04-19T04:41:16;5.00;97.90
32107;DHT22;18622;51.998;10.440;2023-04-19T04:43:45;5.00;98.00
32107;DHT22;18622;51.998;10.440;2023-04-19T04:46:15;5.00;98.00
32107;DHT22;18622;51.998;10.440;2023-04-19T04:48:42;5.10;98.10
32107;DHT22;18622;51.998;10.440;2023-04-19T04:51:11;5.10;98.30
32107;DHT22;18622;51.998;10.440;2023-04-19T04:53:39;5.10;98.60
32107;DHT22;18622;51.998;10.440;2023-04-19T04:56:06;5.20;98.60
32107;DHT22;18622;51.998;10.440;2023-04-19T04:58:35;5.30;98.60
32107;DHT22;18622;51.998;10.440;2023-04-19T05:01:02;5.40;98.60
32107;DHT22;18622;51.998;10.440;2023-04-19T05:03:30;5.50;98.40
32107;DHT22;18622;51.998;10.440;2023-04-19T05:05:58;5.60;98.30
32107;DHT22;18622;51.998;10.440;2023-04-19T05:08:27;5.90;98.10
32107;DHT22;18622;51.998;10.440;2023-04-19T05:10:54;6.00;98.00
32107;DHT22;18622;51.998;10.440;2023-04-19T05:13:22;6.20;97.60
32107;DHT22;18622;51.998;10.440;2023-04-19T05:15:50;6.40;97.10
32107;DHT22;18622;51.998;10.440;2023-04-19T05:18:18;6.40;97.00
32107;DHT22;18622;51.998;10.440;2023-04-19T05:20:46;6.60;97.00
32107;DHT22;18622;51.998;10.440;2023-04-19T05:23:14;6.70;97.00
32107;DHT22;18622;51.998;10.440;2023-04-19T05:25:42;6.80;96.40
32107;DHT22;18622;51.998;10.440;2023-04-19T05:28:10;6.80;96.50
32107;DHT22;18622;51.998;10.440;2023-04-19T15:05:05;19.40;37.40
32107;DHT22;18622;51.998;10.440;2023-04-19T15:07:33;19.40;37.30
32107;DHT22;18622;51.998;10.440;2023-04-19T15:10:01;19.30;36.70
32107;DHT22;18622;51.998;10.440;2023-04-19T15:12:29;18.90;36.80
32107;DHT22;18622;51.998;10.440;2023-04-19T15:14:57;18.50;36.90
32107;DHT22;18622;51.998;10.440;2023-04-19T15:24:07;18.00;38.60
32107;DHT22;18622;51.998;10.440;2023-04-19T15:26:35;19.10;37.50
32107;DHT22;18622;51.998;10.440;2023-04-19T15:29:04;20.20;36.20
32107;DHT22;18622;51.998;10.440;2023-04-19T15:31:32;21.30;33.60
32107;DHT22;18622;51.998;10.440;2023-04-19T15:34:01;21.90;33.60
32107;DHT22;18622;51.998;10.440;2023-04-19T15:36:29;22.60;33.00
32107;DHT22;18622;51.998;10.440;2023-04-19T15:39:00;22.60;32.60
32107;DHT22;18622;51.998;10.440;2023-04-19T15:41:27;21.90;33.30
32107;DHT22;18622;51.998;10.440;2023-04-19T15:43:56;21.00;34.10
32107;DHT22;18622;51.998;10.440;2023-04-19T15:46:24;20.20;35.20
32107;DHT22;18622;51.998;10.440;2023-04-19T15:48:51;19.80;36.20
32107;DHT22;18622;51.998;10.440;2023-04-19T15:51:19;19.50;36.60
32107;DHT22;18622;51.998;10.440;2023-04-19T15:53:47;19.20;36.90
32107;DHT22;18622;51.998;10.440;2023-04-19T15:56:15;18.70;36.80
32107;DHT22;18622;51.998;10.440;2023-04-19T15:58:43;18.30;37.90
32107;DHT22;18622;51.998;10.440;2023-04-19T16:01:11;18.00;37.70
32107;DHT22;18622;51.998;10.440;2023-04-19T16:03:39;18.10;37.50
32107;DHT22;18622;51.998;10.440;2023-04-19T16:06:07;18.40;36.50
32107;DHT22;18622;51.998;10.440;2023-04-19T16:08:34;18.70;36.80
32107;DHT22;18622;51.998;10.440;2023-04-19T16:11:03;19.20;36.00
32107;DHT22;18622;51.998;10.440;2023-04-19T16:13:31;19.60;35.60
32107;DHT22;18622;51.998;10.440;2023-04-19T16:15:59;19.90;35.00
32107;DHT22;18622;51.998;10.440;2023-04-19T16:18:27;20.10;35.90
32107;DHT22;18622;51.998;10.440;2023-04-19T16:20:55;20.40;33.90
32107;DHT22;18622;51.998;10.440;2023-04-19T16:23:23;20.50;34.80
32107;DHT22;18622;51.998;10.440;2023-04-19T16:25:51;20.90;35.40
32107;DHT22;18622;51.998;10.440;2023-04-19T16:28:19;21.40;34.30
32107;DHT22;18622;51.998;10.440;2023-04-19T16:30:47;21.60;33.80
32107;DHT22;18622;51.998;10.440;2023-04-19T16:33:15;21.10;34.00
32107;DHT22;18622;51.998;10.440;2023-04-19T16:35:43;20.10;33.70
32107;DHT22;18622;51.998;10.440;2023-04-19T16:38:10;18.90;34.70
32107;DHT22;18622;51.998;10.440;2023-04-19T16:40:38;17.70;36.20
32107;DHT22;18622;51.998;10.440;2023-04-19T16:43:06;16.90;37.70
32107;DHT22;18622;51.998;10.440;2023-04-19T16:45:34;16.80;38.20
32107;DHT22;18622;51.998;10.440;2023-04-19T16:48:02;17.00;37.40
32107;DHT22;18622;51.998;10.440;2023-04-19T16:50:30;17.00;36.10
32107;DHT22;18622;51.998;10.440;2023-04-19T16:52:57;16.70;36.60
32107;DHT22;18622;51.998;10.440;2023-04-19T16:55:25;16.20;37.20
32107;DHT22;18622;51.998;10.440;2023-04-19T16:57:53;15.90;36.90
32107;DHT22;18622;51.998;10.440;2023-04-19T17:00:22;15.50;36.40
32107;DHT22;18622;51.998;10.440;2023-04-19T17:02:50;15.20;37.80
32107;DHT22;18622;51.998;10.440;2023-04-19T17:05:18;14.90;37.80
32107;DHT22;18622;51.998;10.440;2023-04-19T17:07:46;14.60;37.50
32107;DHT22;18622;51.998;10.440;2023-04-19T17:10:14;14.40;38.40
32107;DHT22;18622;51.998;10.440;2023-04-19T17:12:42;14.30;39.40
32107;DHT22;18622;51.998;10.440;2023-04-19T17:15:10;14.20;38.80
32107;DHT22;18622;51.998;10.440;2023-04-19T17:17:38;14.20;38.80
32107;DHT22;18622;51.998;10.440;2023-04-19T17:20:07;14.20;39.30
32107;DHT22;18622;51.998;10.440;2023-04-19T17:22:35;14.10;39.80
32107;DHT22;18622;51.998;10.440;2023-04-19T17:25:03;14.10;40.10
32107;DHT22;18622;51.998;10.440;2023-04-19T17:27:31;14.10;38.70
32107;DHT22;18622;51.998;10.440;2023-04-19T17:29:59;14.00;39.10
32107;DHT22;18622;51.998;10.440;2023-04-19T17:32:26;13.90;39.80
32107;DHT22;18622;51.998;10.440;2023-04-19T17:34:54;13.90;38.80
32107;DHT22;18622;51.998;10.440;2023-04-19T17:37:22;13.80;39.10
32107;DHT22;18622;51.998;10.440;2023-04-19T17:39:50;13.70;39.00
32107;DHT22;18622;51.998;10.440;2023-04-19T17:42:18;13.60;38.60
32107;DHT22;18622;51.998;10.440;2023-04-19T17:44:45;13.40;40.20
32107;DHT22;18622;51.998;10.440;2023-04-19T17:47:13;13.30;40.00
32107;DHT22;18622;51.998;10.440;2023-04-19T17:49:43;13.20;39.40
32107;DHT22;18622;51.998;10.440;2023-04-19T17:52:12;13.10;40.90
32107;DHT22;18622;51.998;10.440;2023-04-19T17:54:39;13.00;40.80
32107;DHT22;18622;51.998;10.440;2023-04-19T17:57:07;12.80;42.00
32107;DHT22;18622;51.998;10.440;2023-04-19T17:59:35;12.70;41.00
32107;DHT22;18622;51.998;10.440;2023-04-19T18:02:03;12.60;40.50
32107;DHT22;18622;51.998;10.440;2023-04-19T18:04:31;12.50;41.30
32107;DHT22;18622;51.998;10.440;2023-04-19T18:06:58;12.30;41.60
32107;DHT22;18622;51.998;10.440;2023-04-19T18:09:26;12.20;41.80
32107;DHT22;18622;51.998;10.440;2023-04-19T18:11:54;12.10;42.30
32107;DHT22;18622;51.998;10.440;2023-04-19T18:14:22;12.10;41.80
32107;DHT22;18622;51.998;10.440;2023-04-19T18:16:49;12.10;41.60
32107;DHT22;18622;51.998;10.440;2023-04-19T18:19:17;12.10;41.50
32107;DHT22;18622;51.998;10.440;2023-04-19T18:21:45;12.10;42.30
32107;DHT22;18622;51.998;10.440;2023-04-19T18:24:13;11.90;43.20
32107;DHT22;18622;51.998;10.440;2023-04-19T18:26:42;11.80;44.00
32107;DHT22;18622;51.998;10.440;2023-04-19T18:29:10;11.70;44.30
32107;DHT22;18622;51.998;10.440;2023-04-19T18:31:41;11.70;44.00
32107;DHT22;18622;51.998;10.440;2023-04-19T18:34:09;11.70;44.40
32107;DHT22;18622;51.998;10.440;2023-04-19T18:36:37;11.60;45.20
32107;DHT22;18622;51.998;10.440;2023-04-19T18:54:41;11.50;45.40
32107;DHT22;18622;51.998;10.440;2023-04-19T18:57:08;11.50;45.40
32107;DHT22;18622;51.998;10.440;2023-04-19T18:59:36;11.50;46.00
32107;DHT22;18622;51.998;10.440;2023-04-19T19:02:06;11.50;46.30
32107;DHT22;18622;51.998;10.440;2023-04-19T19:04:34;11.50;47.00
32107;DHT22;18622;51.998;10.440;2023-04-19T19:09:31;11.20;48.50
32107;DHT22;18622;51.998;10.440;2023-04-19T19:11:59;11.10;49.10
32107;DHT22;18622;51.998;10.440;2023-04-19T19:14:27;11.10;48.80
32107;DHT22;18622;51.998;10.440;2023-04-19T19:16:54;11.10;49.00
32107;DHT22;18622;51.998;10.440;2023-04-19T19:19:23;11.00;50.10
32107;DHT22;18622;51.998;10.440;2023-04-19T19:21:50;10.80;50.50
32107;DHT22;18622;51.998;10.440;2023-04-19T19:24:25;10.80;50.60
32107;DHT22;18622;51.998;10.440;2023-04-19T19:26:54;10.80;50.60
32107;DHT22;18622;51.998;10.440;2023-04-19T19:29:24;10.60;52.10
32107;DHT22;18622;51.998;10.440;2023-04-19T19:31:51;10.40;53.60
32107;DHT22;18622;51.998;10.440;2023-04-19T19:34:19;10.30;56.00
32107;DHT22;18622;51.998;10.440;2023-04-19T19:36:47;10.20;57.80
32107;DHT22;18622;51.998;10.440;2023-04-19T19:39:15;10.10;59.50
32107;DHT22;18622;51.998;10.440;2023-04-19T19:41:43;9.80;61.30
32107;DHT22;18622;51.998;10.440;2023-04-19T19:44:10;9.60;63.40
32107;DHT22;18622;51.998;10.440;2023-04-19T19:46:38;9.40;64.10
32107;DHT22;18622;51.998;10.440;2023-04-19T19:49:06;9.20;65.50
32107;DHT22;18622;51.998;10.440;2023-04-19T19:51:34;9.10;66.70
32107;DHT22;18622;51.998;10.440;2023-04-19T19:54:02;8.90;67.50
32107;DHT22;18622;51.998;10.440;2023-04-19T19:56:30;8.80;69.40
32107;DHT22;18622;51.998;10.440;2023-04-19T19:58:57;8.70;71.60
32107;DHT22;18622;51.998;10.440;2023-04-19T20:01:25;8.50;73.00
32107;DHT22;18622;51.998;10.440;2023-04-19T20:03:54;8.50;75.00
32107;DHT22;18622;51.998;10.440;2023-04-19T20:06:22;8.40;77.50
32107;DHT22;18622;51.998;10.440;2023-04-19T20:08:49;8.40;79.50
32107;DHT22;18622;51.998;10.440;2023-04-19T20:11:17;8.20;83.60
32107;DHT22;18622;51.998;10.440;2023-04-19T20:13:45;8.10;86.50
32107;DHT22;18622;51.998;10.440;2023-04-19T20:16:13;7.90;91.50
32107;DHT22;18622;51.998;10.440;2023-04-19T20:18:41;7.80;93.70
32107;DHT22;18622;51.998;10.440;2023-04-19T20:21:09;7.60;95.40
32107;DHT22;18622;51.998;10.440;2023-04-19T20:23:39;7.60;96.80
32107;DHT22;18622;51.998;10.440;2023-04-19T20:26:07;7.50;98.40
32107;DHT22;18622;51.998;10.440;2023-04-19T20:28:34;7.50;99.20
32107;DHT22;18622;51.998;10.440;2023-04-19T20:31:02;7.50;99.40
32107;DHT22;18622;51.998;10.440;2023-04-19T20:33:30;7.30;99.90
32107;DHT22;18622;51.998;10.440;2023-04-19T20:35:58;7.30;99.90
32107;DHT22;18622;51.998;10.440;2023-04-19T20:38:27;7.30;99.90
32107;DHT22;18622;51.998;10.440;2023-04-19T20:40:55;7.20;99.90
32107;DHT22;18622;51.998;10.440;2023-04-19T20:43:22;7.10;99.90
